aviador You're here:

SLVR Decoded Metar

SANTA CRUZ in BOLIVIA
Report Time2017-08-24 03:00:00
UTC Time2017-08-24 03:09:32
Flight Rules vfr VFR
Wind360° at 08 kt
W.Decomp.*RWY 34: 7.0 kt HW 3.9 kt RCW
Visibility9999 m
Phenomena:N/A
Clouds:N/A
Expected CloudBase > 2,000 ft AGL from Temp-Dew spread
CeilingNone
Temp22°C (ISA +9)
Dew Point17°C (73% RH)
AAT21.5°C
QNH1010 hPa
Density Alt2,684 ft
Elevation1,224 ft
Report Wrong Elevation
Raw Report
METAR SLVR 240300Z 36008KT 9999 NSC 22/17 Q1010=

Extra information for SLVR:More info

Metar Taf Metar & Taf Last 4 Metars F.Rules Stats Wind Profile Meteogram Temp Stats Airport Information Weather charts Add Link Nearby VenuesMetar ALERT Operation Metar Decoded Social comments